sensor_id;sensor_type;location;lat;lon;timestamp;P1;durP1;ratioP1;P2;durP2;ratioP2
47882;SDS011;37739;50.350;7.578;2022-07-29T00:01:01;4.50;;;1.60;;
47882;SDS011;37739;50.350;7.578;2022-07-29T00:03:26;2.20;;;1.50;;
47882;SDS011;37739;50.350;7.578;2022-07-29T00:05:54;11.90;;;2.40;;
47882;SDS011;37739;50.350;7.578;2022-07-29T00:08:20;1.90;;;1.23;;
47882;SDS011;37739;50.350;7.578;2022-07-29T00:10:45;1.60;;;1.40;;
47882;SDS011;37739;50.350;7.578;2022-07-29T00:13:11;2.57;;;1.23;;
47882;SDS011;37739;50.350;7.578;2022-07-29T00:15:38;3.50;;;1.40;;
47882;SDS011;37739;50.350;7.578;2022-07-29T00:18:06;5.30;;;1.40;;
47882;SDS011;37739;50.350;7.578;2022-07-29T00:20:31;1.53;;;1.07;;
47882;SDS011;37739;50.350;7.578;2022-07-29T00:22:57;2.40;;;1.43;;
47882;SDS011;37739;50.350;7.578;2022-07-29T00:25:24;1.90;;;0.97;;
47882;SDS011;37739;50.350;7.578;2022-07-29T00:27:50;2.43;;;1.13;;
47882;SDS011;37739;50.350;7.578;2022-07-29T00:30:15;1.50;;;1.20;;
47882;SDS011;37739;50.350;7.578;2022-07-29T00:32:43;2.20;;;1.17;;
47882;SDS011;37739;50.350;7.578;2022-07-29T00:35:08;3.20;;;1.30;;
47882;SDS011;37739;50.350;7.578;2022-07-29T00:37:53;2.93;;;1.10;;
47882;SDS011;37739;50.350;7.578;2022-07-29T00:40:19;4.20;;;1.37;;
47882;SDS011;37739;50.350;7.578;2022-07-29T00:42:45;2.07;;;1.30;;
47882;SDS011;37739;50.350;7.578;2022-07-29T00:45:14;2.63;;;1.40;;
47882;SDS011;37739;50.350;7.578;2022-07-29T00:47:40;1.77;;;1.23;;
47882;SDS011;37739;50.350;7.578;2022-07-29T00:50:08;1.67;;;1.30;;
47882;SDS011;37739;50.350;7.578;2022-07-29T00:52:37;3.50;;;1.17;;
47882;SDS011;37739;50.350;7.578;2022-07-29T00:55:05;3.27;;;1.27;;
47882;SDS011;37739;50.350;7.578;2022-07-29T00:57:33;2.80;;;1.57;;
47882;SDS011;37739;50.350;7.578;2022-07-29T01:00:00;2.43;;;1.70;;
47882;SDS011;37739;50.350;7.578;2022-07-29T01:02:25;1.80;;;1.30;;
47882;SDS011;37739;50.350;7.578;2022-07-29T01:04:51;1.70;;;1.07;;
47882;SDS011;37739;50.350;7.578;2022-07-29T01:07:17;2.20;;;1.00;;
47882;SDS011;37739;50.350;7.578;2022-07-29T01:09:43;2.90;;;1.73;;
47882;SDS011;37739;50.350;7.578;2022-07-29T01:12:15;2.90;;;1.33;;
47882;SDS011;37739;50.350;7.578;2022-07-29T01:14:44;2.10;;;1.40;;
47882;SDS011;37739;50.350;7.578;2022-07-29T01:17:12;1.37;;;1.07;;
47882;SDS011;37739;50.350;7.578;2022-07-29T01:19:47;1.90;;;1.30;;
47882;SDS011;37739;50.350;7.578;2022-07-29T01:22:19;2.20;;;1.17;;
47882;SDS011;37739;50.350;7.578;2022-07-29T01:29:44;1.60;;;1.20;;
47882;SDS011;37739;50.350;7.578;2022-07-29T01:32:14;3.30;;;1.43;;
47882;SDS011;37739;50.350;7.578;2022-07-29T01:34:50;1.43;;;1.30;;
47882;SDS011;37739;50.350;7.578;2022-07-29T01:39:54;2.83;;;1.50;;
47882;SDS011;37739;50.350;7.578;2022-07-29T01:42:30;3.70;;;1.60;;
47882;SDS011;37739;50.350;7.578;2022-07-29T01:45:10;3.47;;;1.50;;
47882;SDS011;37739;50.350;7.578;2022-07-29T01:47:44;3.47;;;1.17;;
47882;SDS011;37739;50.350;7.578;2022-07-29T01:50:18;2.90;;;1.30;;
47882;SDS011;37739;50.350;7.578;2022-07-29T01:52:56;2.80;;;1.37;;
47882;SDS011;37739;50.350;7.578;2022-07-29T01:55:26;1.33;;;1.20;;
47882;SDS011;37739;50.350;7.578;2022-07-29T01:57:57;1.90;;;1.30;;
47882;SDS011;37739;50.350;7.578;2022-07-29T02:00:25;2.70;;;1.47;;
47882;SDS011;37739;50.350;7.578;2022-07-29T02:02:51;1.60;;;1.10;;
47882;SDS011;37739;50.350;7.578;2022-07-29T02:05:20;4.80;;;1.50;;
47882;SDS011;37739;50.350;7.578;2022-07-29T02:07:48;2.10;;;1.17;;
47882;SDS011;37739;50.350;7.578;2022-07-29T02:10:21;1.53;;;1.30;;
47882;SDS011;37739;50.350;7.578;2022-07-29T02:12:50;3.67;;;1.63;;
47882;SDS011;37739;50.350;7.578;2022-07-29T02:15:21;3.50;;;1.40;;
47882;SDS011;37739;50.350;7.578;2022-07-29T02:17:50;3.10;;;1.50;;
47882;SDS011;37739;50.350;7.578;2022-07-29T02:20:22;1.57;;;1.17;;
47882;SDS011;37739;50.350;7.578;2022-07-29T02:22:52;1.73;;;1.30;;
47882;SDS011;37739;50.350;7.578;2022-07-29T02:25:19;1.93;;;1.37;;
47882;SDS011;37739;50.350;7.578;2022-07-29T02:27:47;2.17;;;1.40;;
47882;SDS011;37739;50.350;7.578;2022-07-29T02:30:15;2.27;;;1.40;;
47882;SDS011;37739;50.350;7.578;2022-07-29T02:32:43;2.27;;;1.27;;
47882;SDS011;37739;50.350;7.578;2022-07-29T02:35:12;2.47;;;1.40;;
47882;SDS011;37739;50.350;7.578;2022-07-29T02:37:39;1.77;;;1.63;;
47882;SDS011;37739;50.350;7.578;2022-07-29T02:40:12;2.50;;;1.40;;
47882;SDS011;37739;50.350;7.578;2022-07-29T02:42:42;2.37;;;1.90;;
47882;SDS011;37739;50.350;7.578;2022-07-29T02:45:11;1.83;;;1.03;;
47882;SDS011;37739;50.350;7.578;2022-07-29T02:47:39;2.53;;;1.40;;
47882;SDS011;37739;50.350;7.578;2022-07-29T02:50:21;2.70;;;1.30;;
47882;SDS011;37739;50.350;7.578;2022-07-29T02:53:02;2.30;;;1.37;;
47882;SDS011;37739;50.350;7.578;2022-07-29T02:55:37;1.50;;;1.20;;
47882;SDS011;37739;50.350;7.578;2022-07-29T02:58:20;2.90;;;1.70;;
47882;SDS011;37739;50.350;7.578;2022-07-29T03:00:55;1.73;;;1.40;;
47882;SDS011;37739;50.350;7.578;2022-07-29T03:03:24;2.50;;;1.80;;
47882;SDS011;37739;50.350;7.578;2022-07-29T03:05:56;1.40;;;1.30;;
47882;SDS011;37739;50.350;7.578;2022-07-29T03:08:26;1.43;;;1.30;;
47882;SDS011;37739;50.350;7.578;2022-07-29T03:10:54;2.40;;;1.50;;
47882;SDS011;37739;50.350;7.578;2022-07-29T03:13:20;1.90;;;1.57;;
47882;SDS011;37739;50.350;7.578;2022-07-29T03:15:49;3.40;;;2.07;;
47882;SDS011;37739;50.350;7.578;2022-07-29T03:18:15;2.90;;;1.90;;
47882;SDS011;37739;50.350;7.578;2022-07-29T03:20:40;2.53;;;1.90;;
47882;SDS011;37739;50.350;7.578;2022-07-29T03:23:06;2.67;;;1.70;;
47882;SDS011;37739;50.350;7.578;2022-07-29T03:25:33;1.60;;;1.50;;
47882;SDS011;37739;50.350;7.578;2022-07-29T03:27:58;2.10;;;1.40;;
47882;SDS011;37739;50.350;7.578;2022-07-29T03:30:26;2.07;;;1.57;;
47882;SDS011;37739;50.350;7.578;2022-07-29T03:32:55;1.93;;;1.30;;
47882;SDS011;37739;50.350;7.578;2022-07-29T03:35:21;3.53;;;1.50;;
47882;SDS011;37739;50.350;7.578;2022-07-29T03:37:49;3.30;;;1.60;;
47882;SDS011;37739;50.350;7.578;2022-07-29T03:40:24;3.63;;;1.80;;
47882;SDS011;37739;50.350;7.578;2022-07-29T03:42:54;2.63;;;1.57;;
47882;SDS011;37739;50.350;7.578;2022-07-29T03:45:20;1.40;;;1.30;;
47882;SDS011;37739;50.350;7.578;2022-07-29T03:47:49;2.00;;;1.63;;
47882;SDS011;37739;50.350;7.578;2022-07-29T03:50:18;2.87;;;1.27;;
47882;SDS011;37739;50.350;7.578;2022-07-29T03:52:46;3.97;;;2.23;;
47882;SDS011;37739;50.350;7.578;2022-07-29T03:55:13;1.43;;;1.33;;
47882;SDS011;37739;50.350;7.578;2022-07-29T03:57:44;2.13;;;1.47;;
47882;SDS011;37739;50.350;7.578;2022-07-29T04:00:11;1.73;;;1.40;;
47882;SDS011;37739;50.350;7.578;2022-07-29T04:02:40;2.00;;;1.40;;
47882;SDS011;37739;50.350;7.578;2022-07-29T04:05:12;2.40;;;1.60;;
47882;SDS011;37739;50.350;7.578;2022-07-29T04:07:45;4.00;;;1.67;;
47882;SDS011;37739;50.350;7.578;2022-07-29T04:10:11;2.03;;;1.67;;
47882;SDS011;37739;50.350;7.578;2022-07-29T04:12:40;2.00;;;1.77;;
47882;SDS011;37739;50.350;7.578;2022-07-29T04:15:06;2.17;;;1.63;;
47882;SDS011;37739;50.350;7.578;2022-07-29T04:17:32;2.60;;;1.90;;
47882;SDS011;37739;50.350;7.578;2022-07-29T04:19:59;1.60;;;1.37;;
47882;SDS011;37739;50.350;7.578;2022-07-29T04:22:29;2.57;;;1.80;;
47882;SDS011;37739;50.350;7.578;2022-07-29T04:24:57;2.43;;;1.90;;
47882;SDS011;37739;50.350;7.578;2022-07-29T04:27:22;3.23;;;1.90;;
47882;SDS011;37739;50.350;7.578;2022-07-29T04:29:48;2.67;;;1.70;;
47882;SDS011;37739;50.350;7.578;2022-07-29T04:32:13;2.63;;;1.97;;
47882;SDS011;37739;50.350;7.578;2022-07-29T04:34:38;1.87;;;1.50;;
47882;SDS011;37739;50.350;7.578;2022-07-29T04:37:04;2.80;;;1.80;;
47882;SDS011;37739;50.350;7.578;2022-07-29T04:39:29;2.57;;;1.77;;
47882;SDS011;37739;50.350;7.578;2022-07-29T04:41:56;2.33;;;1.90;;
47882;SDS011;37739;50.350;7.578;2022-07-29T04:44:26;1.87;;;1.43;;
47882;SDS011;37739;50.350;7.578;2022-07-29T04:46:54;2.17;;;1.80;;
47882;SDS011;37739;50.350;7.578;2022-07-29T04:49:19;2.80;;;1.80;;
47882;SDS011;37739;50.350;7.578;2022-07-29T04:51:45;2.33;;;1.60;;
47882;SDS011;37739;50.350;7.578;2022-07-29T04:54:10;2.23;;;1.73;;
47882;SDS011;37739;50.350;7.578;2022-07-29T04:56:35;2.63;;;1.60;;
47882;SDS011;37739;50.350;7.578;2022-07-29T04:59:05;1.70;;;1.50;;
47882;SDS011;37739;50.350;7.578;2022-07-29T05:01:31;2.27;;;1.60;;
47882;SDS011;37739;50.350;7.578;2022-07-29T05:04:00;1.67;;;1.57;;
47882;SDS011;37739;50.350;7.578;2022-07-29T05:06:26;2.23;;;1.33;;
47882;SDS011;37739;50.350;7.578;2022-07-29T05:08:51;2.40;;;1.80;;
47882;SDS011;37739;50.350;7.578;2022-07-29T05:11:16;1.70;;;1.50;;
47882;SDS011;37739;50.350;7.578;2022-07-29T05:13:42;3.20;;;1.40;;
47882;SDS011;37739;50.350;7.578;2022-07-29T05:16:07;2.17;;;1.50;;
47882;SDS011;37739;50.350;7.578;2022-07-29T05:18:33;2.20;;;1.50;;
47882;SDS011;37739;50.350;7.578;2022-07-29T05:21:00;1.87;;;1.60;;
47882;SDS011;37739;50.350;7.578;2022-07-29T05:23:28;4.20;;;1.80;;
47882;SDS011;37739;50.350;7.578;2022-07-29T05:25:58;4.33;;;1.60;;
47882;SDS011;37739;50.350;7.578;2022-07-29T05:28:25;2.27;;;1.73;;
47882;SDS011;37739;50.350;7.578;2022-07-29T05:30:51;1.93;;;1.60;;
47882;SDS011;37739;50.350;7.578;2022-07-29T05:33:16;2.20;;;1.77;;
47882;SDS011;37739;50.350;7.578;2022-07-29T05:35:41;2.90;;;1.83;;
47882;SDS011;37739;50.350;7.578;2022-07-29T05:38:06;1.67;;;1.53;;
47882;SDS011;37739;50.350;7.578;2022-07-29T05:40:34;1.77;;;1.60;;
47882;SDS011;37739;50.350;7.578;2022-07-29T05:42:59;2.37;;;1.53;;
47882;SDS011;37739;50.350;7.578;2022-07-29T05:45:27;5.10;;;1.70;;
47882;SDS011;37739;50.350;7.578;2022-07-29T05:47:54;2.50;;;2.10;;
47882;SDS011;37739;50.350;7.578;2022-07-29T05:50:22;3.20;;;1.70;;
47882;SDS011;37739;50.350;7.578;2022-07-29T05:52:47;2.80;;;1.93;;
47882;SDS011;37739;50.350;7.578;2022-07-29T05:55:15;2.67;;;1.87;;
47882;SDS011;37739;50.350;7.578;2022-07-29T05:57:41;1.83;;;1.73;;
47882;SDS011;37739;50.350;7.578;2022-07-29T06:00:08;1.90;;;1.50;;
47882;SDS011;37739;50.350;7.578;2022-07-29T06:02:34;3.00;;;1.60;;
47882;SDS011;37739;50.350;7.578;2022-07-29T06:04:59;1.87;;;1.37;;
47882;SDS011;37739;50.350;7.578;2022-07-29T06:07:25;3.93;;;1.43;;
47882;SDS011;37739;50.350;7.578;2022-07-29T06:09:50;1.47;;;1.37;;
47882;SDS011;37739;50.350;7.578;2022-07-29T06:12:15;3.13;;;1.70;;
47882;SDS011;37739;50.350;7.578;2022-07-29T06:14:41;1.80;;;1.60;;
47882;SDS011;37739;50.350;7.578;2022-07-29T06:17:06;2.40;;;1.50;;
47882;SDS011;37739;50.350;7.578;2022-07-29T06:19:33;2.00;;;1.50;;
47882;SDS011;37739;50.350;7.578;2022-07-29T06:22:00;3.03;;;2.10;;
47882;SDS011;37739;50.350;7.578;2022-07-29T06:24:25;2.23;;;2.03;;
47882;SDS011;37739;50.350;7.578;2022-07-29T06:26:51;1.90;;;1.70;;
47882;SDS011;37739;50.350;7.578;2022-07-29T06:29:16;2.30;;;1.80;;
47882;SDS011;37739;50.350;7.578;2022-07-29T06:31:44;1.63;;;1.53;;
47882;SDS011;37739;50.350;7.578;2022-07-29T06:34:09;3.00;;;2.00;;
47882;SDS011;37739;50.350;7.578;2022-07-29T06:36:35;2.77;;;1.60;;
47882;SDS011;37739;50.350;7.578;2022-07-29T06:39:06;3.30;;;1.70;;
47882;SDS011;37739;50.350;7.578;2022-07-29T06:41:32;3.93;;;1.93;;
47882;SDS011;37739;50.350;7.578;2022-07-29T06:44:00;2.23;;;1.67;;
47882;SDS011;37739;50.350;7.578;2022-07-29T06:46:26;3.00;;;2.00;;
47882;SDS011;37739;50.350;7.578;2022-07-29T06:48:52;3.43;;;1.87;;
47882;SDS011;37739;50.350;7.578;2022-07-29T06:51:21;2.87;;;2.07;;
47882;SDS011;37739;50.350;7.578;2022-07-29T06:53:46;5.10;;;2.77;;
47882;SDS011;37739;50.350;7.578;2022-07-29T06:56:11;2.30;;;1.87;;
47882;SDS011;37739;50.350;7.578;2022-07-29T06:58:39;5.00;;;1.97;;
47882;SDS011;37739;50.350;7.578;2022-07-29T07:01:05;3.57;;;1.93;;
47882;SDS011;37739;50.350;7.578;2022-07-29T07:03:33;5.93;;;2.27;;
47882;SDS011;37739;50.350;7.578;2022-07-29T07:05:59;11.20;;;3.70;;
47882;SDS011;37739;50.350;7.578;2022-07-29T07:08:28;11.50;;;3.40;;
47882;SDS011;37739;50.350;7.578;2022-07-29T07:10:56;11.40;;;4.03;;
47882;SDS011;37739;50.350;7.578;2022-07-29T07:13:24;4.80;;;2.47;;
47882;SDS011;37739;50.350;7.578;2022-07-29T07:15:53;2.23;;;1.83;;
47882;SDS011;37739;50.350;7.578;2022-07-29T07:18:18;3.60;;;2.07;;
47882;SDS011;37739;50.350;7.578;2022-07-29T07:20:46;2.00;;;1.50;;
47882;SDS011;37739;50.350;7.578;2022-07-29T07:23:12;3.60;;;2.00;;
47882;SDS011;37739;50.350;7.578;2022-07-29T07:25:37;4.90;;;2.03;;
47882;SDS011;37739;50.350;7.578;2022-07-29T07:28:03;2.60;;;1.90;;
47882;SDS011;37739;50.350;7.578;2022-07-29T07:30:28;3.67;;;1.70;;
47882;SDS011;37739;50.350;7.578;2022-07-29T07:32:56;2.93;;;2.00;;
47882;SDS011;37739;50.350;7.578;2022-07-29T07:35:21;4.03;;;1.90;;
47882;SDS011;37739;50.350;7.578;2022-07-29T07:37:49;3.30;;;1.50;;
47882;SDS011;37739;50.350;7.578;2022-07-29T07:40:14;3.73;;;2.20;;
47882;SDS011;37739;50.350;7.578;2022-07-29T07:42:40;1.90;;;1.70;;
47882;SDS011;37739;50.350;7.578;2022-07-29T07:45:06;2.60;;;1.43;;
47882;SDS011;37739;50.350;7.578;2022-07-29T07:47:34;1.80;;;1.30;;
47882;SDS011;37739;50.350;7.578;2022-07-29T07:50:00;1.80;;;1.30;;
47882;SDS011;37739;50.350;7.578;2022-07-29T07:52:25;3.83;;;1.70;;
47882;SDS011;37739;50.350;7.578;2022-07-29T07:54:51;2.60;;;1.80;;
47882;SDS011;37739;50.350;7.578;2022-07-29T07:57:16;2.67;;;1.60;;
47882;SDS011;37739;50.350;7.578;2022-07-29T07:59:44;2.70;;;1.80;;
47882;SDS011;37739;50.350;7.578;2022-07-29T08:02:12;1.57;;;1.40;;
47882;SDS011;37739;50.350;7.578;2022-07-29T08:04:39;3.10;;;2.03;;
47882;SDS011;37739;50.350;7.578;2022-07-29T08:07:05;1.90;;;1.33;;
47882;SDS011;37739;50.350;7.578;2022-07-29T08:09:32;2.00;;;1.70;;
47882;SDS011;37739;50.350;7.578;2022-07-29T08:11:59;2.27;;;1.77;;
47882;SDS011;37739;50.350;7.578;2022-07-29T08:14:27;1.87;;;1.67;;
47882;SDS011;37739;50.350;7.578;2022-07-29T08:16:53;1.90;;;1.67;;
47882;SDS011;37739;50.350;7.578;2022-07-29T08:19:18;3.50;;;1.80;;
47882;SDS011;37739;50.350;7.578;2022-07-29T08:21:46;1.93;;;1.63;;
47882;SDS011;37739;50.350;7.578;2022-07-29T08:24:14;2.70;;;1.60;;
47882;SDS011;37739;50.350;7.578;2022-07-29T08:26:57;2.60;;;1.73;;
47882;SDS011;37739;50.350;7.578;2022-07-29T08:29:23;2.33;;;1.60;;
47882;SDS011;37739;50.350;7.578;2022-07-29T08:31:48;1.93;;;1.40;;
47882;SDS011;37739;50.350;7.578;2022-07-29T08:34:13;1.67;;;1.43;;
47882;SDS011;37739;50.350;7.578;2022-07-29T08:36:41;2.37;;;2.17;;
47882;SDS011;37739;50.350;7.578;2022-07-29T08:39:08;3.13;;;1.80;;
47882;SDS011;37739;50.350;7.578;2022-07-29T08:41:34;3.07;;;2.10;;
47882;SDS011;37739;50.350;7.578;2022-07-29T08:44:00;4.70;;;1.80;;
47882;SDS011;37739;50.350;7.578;2022-07-29T08:46:25;3.07;;;1.90;;
47882;SDS011;37739;50.350;7.578;2022-07-29T08:48:53;2.10;;;1.87;;
47882;SDS011;37739;50.350;7.578;2022-07-29T08:51:22;2.57;;;2.00;;
47882;SDS011;37739;50.350;7.578;2022-07-29T08:53:51;4.23;;;2.13;;
47882;SDS011;37739;50.350;7.578;2022-07-29T08:56:21;2.00;;;1.77;;
47882;SDS011;37739;50.350;7.578;2022-07-29T08:58:47;3.63;;;1.60;;
47882;SDS011;37739;50.350;7.578;2022-07-29T09:01:13;2.57;;;1.90;;
47882;SDS011;37739;50.350;7.578;2022-07-29T09:03:42;3.20;;;2.00;;
47882;SDS011;37739;50.350;7.578;2022-07-29T09:06:14;3.80;;;2.37;;
47882;SDS011;37739;50.350;7.578;2022-07-29T09:08:42;3.10;;;2.20;;
47882;SDS011;37739;50.350;7.578;2022-07-29T09:11:12;4.83;;;2.07;;
47882;SDS011;37739;50.350;7.578;2022-07-29T09:13:38;3.37;;;2.40;;
47882;SDS011;37739;50.350;7.578;2022-07-29T09:16:06;3.00;;;2.07;;
47882;SDS011;37739;50.350;7.578;2022-07-29T09:18:41;2.67;;;2.10;;
47882;SDS011;37739;50.350;7.578;2022-07-29T09:21:09;3.33;;;2.40;;
47882;SDS011;37739;50.350;7.578;2022-07-29T09:24:08;2.60;;;2.13;;
47882;SDS011;37739;50.350;7.578;2022-07-29T09:26:36;2.10;;;1.90;;
47882;SDS011;37739;50.350;7.578;2022-07-29T09:31:42;2.53;;;2.27;;
47882;SDS011;37739;50.350;7.578;2022-07-29T09:34:09;3.00;;;2.40;;
47882;SDS011;37739;50.350;7.578;2022-07-29T09:36:45;4.50;;;2.40;;
47882;SDS011;37739;50.350;7.578;2022-07-29T09:39:13;2.60;;;2.40;;
47882;SDS011;37739;50.350;7.578;2022-07-29T09:41:46;3.00;;;2.30;;
47882;SDS011;37739;50.350;7.578;2022-07-29T09:44:18;4.10;;;2.40;;
47882;SDS011;37739;50.350;7.578;2022-07-29T09:46:56;3.10;;;2.13;;
47882;SDS011;37739;50.350;7.578;2022-07-29T09:49:23;2.73;;;1.80;;
47882;SDS011;37739;50.350;7.578;2022-07-29T09:54:45;1.70;;;1.50;;
47882;SDS011;37739;50.350;7.578;2022-07-29T09:57:21;5.13;;;2.20;;
47882;SDS011;37739;50.350;7.578;2022-07-29T10:00:00;5.73;;;2.70;;
47882;SDS011;37739;50.350;7.578;2022-07-29T10:02:34;2.80;;;1.80;;
47882;SDS011;37739;50.350;7.578;2022-07-29T10:05:02;3.70;;;2.23;;
47882;SDS011;37739;50.350;7.578;2022-07-29T10:07:44;2.70;;;1.93;;
47882;SDS011;37739;50.350;7.578;2022-07-29T10:10:19;3.47;;;2.07;;
47882;SDS011;37739;50.350;7.578;2022-07-29T10:12:49;1.90;;;1.80;;
47882;SDS011;37739;50.350;7.578;2022-07-29T10:15:18;4.63;;;2.33;;
47882;SDS011;37739;50.350;7.578;2022-07-29T10:17:48;1.93;;;1.73;;
47882;SDS011;37739;50.350;7.578;2022-07-29T10:20:14;2.33;;;2.03;;
47882;SDS011;37739;50.350;7.578;2022-07-29T10:22:40;4.80;;;2.20;;
47882;SDS011;37739;50.350;7.578;2022-07-29T10:25:07;3.03;;;2.40;;
47882;SDS011;37739;50.350;7.578;2022-07-29T10:27:34;2.97;;;1.93;;
47882;SDS011;37739;50.350;7.578;2022-07-29T10:30:03;3.57;;;2.30;;
47882;SDS011;37739;50.350;7.578;2022-07-29T10:40:57;2.73;;;2.40;;
47882;SDS011;37739;50.350;7.578;2022-07-29T10:43:54;3.20;;;2.10;;
47882;SDS011;37739;50.350;7.578;2022-07-29T10:46:25;3.67;;;2.50;;
47882;SDS011;37739;50.350;7.578;2022-07-29T10:49:07;2.87;;;2.57;;
47882;SDS011;37739;50.350;7.578;2022-07-29T10:51:59;2.70;;;2.30;;
47882;SDS011;37739;50.350;7.578;2022-07-29T10:57:30;3.03;;;2.20;;
47882;SDS011;37739;50.350;7.578;2022-07-29T11:04:59;2.57;;;2.20;;
47882;SDS011;37739;50.350;7.578;2022-07-29T11:07:26;2.40;;;2.20;;
47882;SDS011;37739;50.350;7.578;2022-07-29T11:15:09;3.33;;;2.30;;
47882;SDS011;37739;50.350;7.578;2022-07-29T11:23:00;3.80;;;2.50;;
47882;SDS011;37739;50.350;7.578;2022-07-29T11:25:28;4.43;;;2.77;;
47882;SDS011;37739;50.350;7.578;2022-07-29T11:27:54;4.53;;;2.77;;
47882;SDS011;37739;50.350;7.578;2022-07-29T11:30:56;2.97;;;2.67;;
47882;SDS011;37739;50.350;7.578;2022-07-29T11:33:28;3.30;;;2.60;;
47882;SDS011;37739;50.350;7.578;2022-07-29T11:38:35;3.23;;;2.40;;
47882;SDS011;37739;50.350;7.578;2022-07-29T11:49:12;2.70;;;2.40;;
47882;SDS011;37739;50.350;7.578;2022-07-29T11:51:37;3.10;;;2.20;;
47882;SDS011;37739;50.350;7.578;2022-07-29T11:54:03;5.00;;;2.70;;
47882;SDS011;37739;50.350;7.578;2022-07-29T11:56:30;3.17;;;2.60;;
47882;SDS011;37739;50.350;7.578;2022-07-29T11:59:05;2.30;;;1.90;;
47882;SDS011;37739;50.350;7.578;2022-07-29T12:01:34;3.30;;;2.40;;
47882;SDS011;37739;50.350;7.578;2022-07-29T12:04:03;3.20;;;2.27;;
47882;SDS011;37739;50.350;7.578;2022-07-29T12:06:35;2.53;;;2.33;;
47882;SDS011;37739;50.350;7.578;2022-07-29T12:09:06;2.20;;;2.00;;
47882;SDS011;37739;50.350;7.578;2022-07-29T12:11:32;3.00;;;2.10;;
47882;SDS011;37739;50.350;7.578;2022-07-29T12:13:58;2.50;;;2.30;;
47882;SDS011;37739;50.350;7.578;2022-07-29T12:16:23;2.40;;;2.20;;
47882;SDS011;37739;50.350;7.578;2022-07-29T12:19:01;2.57;;;2.33;;
47882;SDS011;37739;50.350;7.578;2022-07-29T12:21:28;2.77;;;2.47;;
47882;SDS011;37739;50.350;7.578;2022-07-29T12:24:15;4.50;;;2.17;;
47882;SDS011;37739;50.350;7.578;2022-07-29T12:29:24;2.83;;;2.20;;
47882;SDS011;37739;50.350;7.578;2022-07-29T12:31:52;3.43;;;2.63;;
47882;SDS011;37739;50.350;7.578;2022-07-29T12:34:22;2.80;;;2.30;;
47882;SDS011;37739;50.350;7.578;2022-07-29T12:36:49;5.10;;;3.00;;
47882;SDS011;37739;50.350;7.578;2022-07-29T12:39:15;3.10;;;2.80;;
47882;SDS011;37739;50.350;7.578;2022-07-29T12:41:44;2.70;;;2.50;;
47882;SDS011;37739;50.350;7.578;2022-07-29T12:44:12;4.30;;;2.50;;
47882;SDS011;37739;50.350;7.578;2022-07-29T12:46:37;2.60;;;2.40;;
47882;SDS011;37739;50.350;7.578;2022-07-29T12:49:05;3.60;;;2.80;;
47882;SDS011;37739;50.350;7.578;2022-07-29T12:54:04;2.30;;;2.10;;
47882;SDS011;37739;50.350;7.578;2022-07-29T12:56:35;2.40;;;1.97;;
47882;SDS011;37739;50.350;7.578;2022-07-29T12:59:10;6.07;;;2.60;;
47882;SDS011;37739;50.350;7.578;2022-07-29T13:01:42;3.10;;;2.10;;
47882;SDS011;37739;50.350;7.578;2022-07-29T13:04:23;2.93;;;2.33;;
47882;SDS011;37739;50.350;7.578;2022-07-29T13:07:02;2.80;;;2.60;;
47882;SDS011;37739;50.350;7.578;2022-07-29T13:09:40;3.90;;;2.60;;
47882;SDS011;37739;50.350;7.578;2022-07-29T13:12:07;5.30;;;2.30;;
47882;SDS011;37739;50.350;7.578;2022-07-29T13:14:35;4.00;;;2.13;;
47882;SDS011;37739;50.350;7.578;2022-07-29T13:17:09;2.50;;;2.00;;
47882;SDS011;37739;50.350;7.578;2022-07-29T13:19:42;2.83;;;2.50;;
47882;SDS011;37739;50.350;7.578;2022-07-29T13:22:09;4.00;;;2.60;;
47882;SDS011;37739;50.350;7.578;2022-07-29T13:24:46;2.63;;;2.20;;
47882;SDS011;37739;50.350;7.578;2022-07-29T13:27:34;2.40;;;2.13;;
47882;SDS011;37739;50.350;7.578;2022-07-29T13:30:07;3.10;;;2.80;;
47882;SDS011;37739;50.350;7.578;2022-07-29T13:32:38;3.70;;;2.67;;
47882;SDS011;37739;50.350;7.578;2022-07-29T13:35:04;2.93;;;2.60;;
47882;SDS011;37739;50.350;7.578;2022-07-29T13:37:35;2.30;;;2.10;;
47882;SDS011;37739;50.350;7.578;2022-07-29T13:40:03;2.03;;;1.83;;
47882;SDS011;37739;50.350;7.578;2022-07-29T13:42:32;3.03;;;2.33;;
47882;SDS011;37739;50.350;7.578;2022-07-29T13:45:00;3.10;;;2.30;;
47882;SDS011;37739;50.350;7.578;2022-07-29T13:47:27;2.73;;;2.00;;
47882;SDS011;37739;50.350;7.578;2022-07-29T13:49:53;3.97;;;2.73;;
47882;SDS011;37739;50.350;7.578;2022-07-29T13:52:19;3.13;;;2.50;;
47882;SDS011;37739;50.350;7.578;2022-07-29T13:54:49;2.70;;;2.50;;
47882;SDS011;37739;50.350;7.578;2022-07-29T13:57:17;3.20;;;2.40;;
47882;SDS011;37739;50.350;7.578;2022-07-29T13:59:45;3.50;;;2.37;;
47882;SDS011;37739;50.350;7.578;2022-07-29T14:02:11;5.03;;;2.73;;
47882;SDS011;37739;50.350;7.578;2022-07-29T14:04:37;2.80;;;2.50;;
47882;SDS011;37739;50.350;7.578;2022-07-29T14:07:05;2.50;;;2.30;;
47882;SDS011;37739;50.350;7.578;2022-07-29T14:09:33;5.40;;;2.50;;
47882;SDS011;37739;50.350;7.578;2022-07-29T14:12:00;2.40;;;2.20;;
47882;SDS011;37739;50.350;7.578;2022-07-29T14:14:29;2.87;;;2.50;;
47882;SDS011;37739;50.350;7.578;2022-07-29T14:16:56;2.33;;;2.13;;
47882;SDS011;37739;50.350;7.578;2022-07-29T14:19:21;3.40;;;2.40;;
47882;SDS011;37739;50.350;7.578;2022-07-29T14:21:47;2.40;;;2.20;;
47882;SDS011;37739;50.350;7.578;2022-07-29T14:24:12;2.63;;;2.20;;
47882;SDS011;37739;50.350;7.578;2022-07-29T14:26:37;3.80;;;2.30;;
47882;SDS011;37739;50.350;7.578;2022-07-29T14:29:03;3.77;;;2.30;;
47882;SDS011;37739;50.350;7.578;2022-07-29T14:31:30;3.40;;;2.43;;
47882;SDS011;37739;50.350;7.578;2022-07-29T14:33:56;3.30;;;2.77;;
47882;SDS011;37739;50.350;7.578;2022-07-29T14:36:21;4.87;;;2.60;;
47882;SDS011;37739;50.350;7.578;2022-07-29T14:38:46;3.23;;;2.40;;
47882;SDS011;37739;50.350;7.578;2022-07-29T14:41:12;3.97;;;2.23;;
47882;SDS011;37739;50.350;7.578;2022-07-29T14:43:44;3.90;;;2.40;;
47882;SDS011;37739;50.350;7.578;2022-07-29T14:46:14;2.40;;;2.20;;
47882;SDS011;37739;50.350;7.578;2022-07-29T14:48:39;6.43;;;2.67;;
47882;SDS011;37739;50.350;7.578;2022-07-29T14:51:07;3.90;;;2.30;;
47882;SDS011;37739;50.350;7.578;2022-07-29T14:53:32;3.37;;;2.23;;
47882;SDS011;37739;50.350;7.578;2022-07-29T14:56:00;5.73;;;2.80;;
47882;SDS011;37739;50.350;7.578;2022-07-29T14:58:28;3.97;;;2.57;;
47882;SDS011;37739;50.350;7.578;2022-07-29T15:00:53;2.63;;;2.43;;
47882;SDS011;37739;50.350;7.578;2022-07-29T15:03:21;3.33;;;2.80;;
47882;SDS011;37739;50.350;7.578;2022-07-29T15:05:47;2.70;;;2.50;;
47882;SDS011;37739;50.350;7.578;2022-07-29T15:08:12;4.03;;;2.40;;
47882;SDS011;37739;50.350;7.578;2022-07-29T15:10:40;6.87;;;2.67;;
47882;SDS011;37739;50.350;7.578;2022-07-29T15:13:05;3.10;;;2.37;;
47882;SDS011;37739;50.350;7.578;2022-07-29T15:15:31;3.87;;;2.67;;
47882;SDS011;37739;50.350;7.578;2022-07-29T15:17:58;4.40;;;2.80;;
47882;SDS011;37739;50.350;7.578;2022-07-29T15:20:28;4.80;;;2.60;;
47882;SDS011;37739;50.350;7.578;2022-07-29T15:22:54;4.30;;;2.73;;
47882;SDS011;37739;50.350;7.578;2022-07-29T15:25:23;2.87;;;2.47;;
47882;SDS011;37739;50.350;7.578;2022-07-29T15:27:51;3.20;;;2.73;;
47882;SDS011;37739;50.350;7.578;2022-07-29T15:30:16;2.70;;;2.30;;
47882;SDS011;37739;50.350;7.578;2022-07-29T15:32:44;3.90;;;2.50;;
47882;SDS011;37739;50.350;7.578;2022-07-29T15:35:10;2.60;;;2.23;;
47882;SDS011;37739;50.350;7.578;2022-07-29T15:37:36;2.40;;;2.13;;
47882;SDS011;37739;50.350;7.578;2022-07-29T15:40:04;6.30;;;2.67;;
47882;SDS011;37739;50.350;7.578;2022-07-29T15:42:30;2.37;;;2.10;;
47882;SDS011;37739;50.350;7.578;2022-07-29T15:44:56;2.63;;;2.33;;
47882;SDS011;37739;50.350;7.578;2022-07-29T15:47:21;3.23;;;2.70;;
47882;SDS011;37739;50.350;7.578;2022-07-29T15:49:47;4.70;;;2.40;;
47882;SDS011;37739;50.350;7.578;2022-07-29T15:52:17;2.50;;;2.30;;